Kenton, Kentucky
Current Conditions -  °F | °C
As of 9:53 AM on Saturday 22 Nov 2014 (Local Time) from KLUK Reporting Station
Overcast Overcast  
Wind Chill: 38°   Ceiling: 7000
Heat Index: 38°   Visibility: 10mi
Dew Point: 33°   Wind: 0mph
Humidity: 83%   Direction: NA
Pressure: 30.3"   Gusts: NA
Location:  38.87°N, 84.46°W
Report Text: KLUK 221453Z 00000KT 10SM OVC070 03/01 A3030 RMK AO2 RAB02E26B42E51 SLP265 P0000 60000 T00330006 56006
Loading
Personal Weather Stations






























Interactive Weather Map New forecast layout! Learn more

10-Day Weather Forecast

Advertisements
Track Severe Weather on mobile